createdAt,value
2017-08-26T07:22:39.485Z,21.35
2017-08-26T07:22:40.063Z,21.41
2017-08-26T07:22:40.652Z,21.41
2017-08-26T07:22:41.255Z,21.39
2017-08-26T07:22:41.852Z,21.41
2017-08-26T07:22:42.455Z,21.41
2017-08-26T07:22:43.051Z,21.39
2017-08-26T07:23:57.189Z,21.56
2017-08-26T07:23:57.721Z,21.56
2017-08-26T07:23:58.332Z,21.59
2017-08-26T07:23:58.952Z,21.57
2017-08-26T07:23:59.627Z,21.57
2017-08-26T07:24:00.144Z,21.56
2017-08-26T07:24:00.750Z,21.54
2017-08-26T07:24:55.594Z,21.64
2017-08-26T07:24:56.196Z,21.71
2017-08-26T07:24:56.788Z,21.69
2017-08-26T07:24:57.391Z,21.67
2017-08-26T07:24:57.986Z,21.66
2017-08-26T07:24:58.586Z,21.66
2017-08-26T07:24:59.190Z,21.64
2017-08-26T07:25:53.247Z,21.63
2017-08-26T07:25:53.840Z,21.66
2017-08-26T07:25:54.444Z,21.78
2017-08-26T07:25:55.066Z,21.64
2017-08-26T07:25:55.642Z,21.71
2017-08-26T07:25:56.243Z,21.75
2017-08-26T07:25:56.851Z,21.75
2017-08-26T07:26:50.392Z,21.75
2017-08-26T07:26:51.004Z,21.72
2017-08-26T07:26:51.630Z,21.74
2017-08-26T07:26:52.186Z,21.75
2017-08-26T07:26:52.779Z,21.78
2017-08-26T07:26:53.377Z,21.76
2017-08-26T07:26:53.985Z,21.74
2017-08-26T07:26:54.577Z,21.74
2017-08-26T07:27:48.675Z,21.74
2017-08-26T07:27:49.255Z,21.75
2017-08-26T07:27:49.847Z,21.71
2017-08-26T07:27:50.450Z,21.76
2017-08-26T07:27:51.047Z,21.74
2017-08-26T07:27:51.651Z,21.71
2017-08-26T07:27:52.250Z,21.75
2017-08-26T07:28:47.327Z,21.78
2017-08-26T07:28:47.924Z,21.74
2017-08-26T07:28:48.523Z,21.69
2017-08-26T07:28:49.125Z,21.75
2017-08-26T07:28:49.724Z,21.74
2017-08-26T07:28:50.321Z,21.74
2017-08-26T07:29:45.454Z,21.74
2017-08-26T07:29:45.908Z,21.74
2017-08-26T07:29:46.505Z,21.75
2017-08-26T07:29:47.085Z,21.75
2017-08-26T07:29:47.677Z,21.76
2017-08-26T07:29:48.261Z,21.75
2017-08-26T07:29:48.897Z,21.79
2017-08-26T07:30:43.413Z,21.79
2017-08-26T07:30:43.947Z,21.78
2017-08-26T07:30:44.574Z,21.72
2017-08-26T07:30:45.163Z,21.72
2017-08-26T07:30:45.742Z,21.72
2017-08-26T07:30:46.343Z,21.74
2017-08-26T07:30:46.942Z,21.76
2017-08-26T07:31:40.999Z,21.75
2017-08-26T07:31:41.598Z,21.75
2017-08-26T07:31:42.195Z,21.78
2017-08-26T07:31:42.796Z,21.82
2017-08-26T07:31:43.391Z,21.81
2017-08-26T07:31:43.994Z,21.74
2017-08-26T07:31:44.597Z,21.79
2017-08-26T07:32:40.528Z,21.90
2017-08-26T07:32:41.090Z,21.91
2017-08-26T07:32:41.694Z,21.92
2017-08-26T07:32:42.290Z,21.81
2017-08-26T07:32:42.890Z,21.97
2017-08-26T07:32:43.484Z,21.91
2017-08-26T07:33:38.967Z,21.81
2017-08-26T07:33:39.565Z,21.85
2017-08-26T07:33:40.164Z,21.90
2017-08-26T07:33:40.767Z,21.81
2017-08-26T07:33:41.366Z,21.85
2017-08-26T07:33:41.962Z,21.88
2017-08-26T07:34:36.511Z,21.76
2017-08-26T07:34:37.172Z,21.74
2017-08-26T07:34:37.717Z,21.81
2017-08-26T07:34:38.324Z,21.76
2017-08-26T07:34:38.909Z,21.78
2017-08-26T07:34:39.511Z,21.71
2017-08-26T07:34:40.110Z,21.81
2017-08-26T07:35:34.162Z,21.72
2017-08-26T07:35:34.761Z,21.74
2017-08-26T07:35:35.366Z,21.79
2017-08-26T07:35:35.965Z,21.78
2017-08-26T07:35:36.563Z,21.76
2017-08-26T07:35:37.169Z,21.81
2017-08-26T07:35:37.762Z,21.76
2017-08-26T07:36:32.743Z,21.85
2017-08-26T07:36:33.339Z,21.83
2017-08-26T07:36:33.939Z,21.85
2017-08-26T07:36:34.539Z,21.85
2017-08-26T07:36:35.135Z,21.90
2017-08-26T07:36:35.730Z,21.83
2017-08-26T07:37:30.291Z,22.04
2017-08-26T07:37:30.888Z,21.98
2017-08-26T07:37:31.483Z,21.97
2017-08-26T07:37:32.088Z,21.95
2017-08-26T07:37:32.688Z,22.04
2017-08-26T07:37:33.283Z,22.02
2017-08-26T07:37:33.886Z,21.98
2017-08-26T07:38:27.984Z,22.01
2017-08-26T07:38:28.542Z,21.98
2017-08-26T07:38:29.136Z,22.01
2017-08-26T07:38:29.736Z,22.01
2017-08-26T07:38:30.334Z,21.97
2017-08-26T07:38:30.934Z,22.04
2017-08-26T07:38:31.539Z,22.02
2017-08-26T07:39:25.596Z,21.85
2017-08-26T07:39:26.188Z,21.85
2017-08-26T07:39:26.784Z,21.82
2017-08-26T07:39:27.384Z,21.76
2017-08-26T07:39:27.987Z,21.82
2017-08-26T07:39:28.585Z,21.81
2017-08-26T07:39:29.187Z,21.82
2017-08-26T07:40:23.240Z,21.82
2017-08-26T07:40:23.837Z,21.81
2017-08-26T07:40:24.442Z,21.82
2017-08-26T07:40:25.046Z,21.92
2017-08-26T07:40:25.644Z,21.94
2017-08-26T07:40:26.243Z,21.91
2017-08-26T07:40:26.842Z,21.81
2017-08-26T07:41:20.896Z,21.97
2017-08-26T07:41:21.487Z,21.95
2017-08-26T07:41:22.091Z,21.95
2017-08-26T07:41:22.692Z,21.97
2017-08-26T07:41:23.294Z,21.98
2017-08-26T07:41:23.895Z,21.97
2017-08-26T07:41:24.491Z,22.01
2017-08-26T07:42:18.544Z,22.09
2017-08-26T07:42:19.144Z,22.07
2017-08-26T07:42:19.743Z,22.12
2017-08-26T07:42:20.340Z,22.12
2017-08-26T07:42:20.941Z,22.10
2017-08-26T07:42:21.542Z,22.07
2017-08-26T07:42:22.146Z,22.10
2017-08-26T07:43:16.203Z,22.17
2017-08-26T07:43:16.794Z,22.19
2017-08-26T07:43:17.391Z,22.14
2017-08-26T07:43:18.007Z,22.19
2017-08-26T07:43:18.598Z,22.14
2017-08-26T07:43:19.198Z,22.20
2017-08-26T07:43:19.795Z,22.19
2017-08-26T07:44:13.884Z,22.19
2017-08-26T07:44:14.451Z,22.19
2017-08-26T07:44:15.048Z,22.13
2017-08-26T07:44:15.650Z,22.16
2017-08-26T07:44:16.250Z,22.13
2017-08-26T07:44:16.849Z,22.17
2017-08-26T07:44:17.450Z,22.22
2017-08-26T07:45:11.501Z,22.14
2017-08-26T07:45:12.096Z,22.07
2017-08-26T07:45:12.697Z,22.09
2017-08-26T07:45:13.295Z,22.14
2017-08-26T07:45:13.899Z,22.19
2017-08-26T07:45:14.496Z,22.17
2017-08-26T07:45:15.102Z,22.22
2017-08-26T07:46:09.153Z,22.01
2017-08-26T07:46:09.751Z,22.02
2017-08-26T07:46:10.353Z,22.07
2017-08-26T07:46:10.954Z,22.06
2017-08-26T07:46:11.550Z,22.07
2017-08-26T07:46:12.149Z,22.02
2017-08-26T07:46:12.757Z,22.12
2017-08-26T07:47:06.802Z,22.16
2017-08-26T07:47:07.400Z,22.20
2017-08-26T07:47:08.002Z,22.28
2017-08-26T07:47:08.601Z,22.23
2017-08-26T07:47:09.205Z,22.22
2017-08-26T07:47:09.804Z,22.23
2017-08-26T07:47:10.409Z,22.31
2017-08-26T08:04:35.516Z,22.84
2017-08-26T08:04:36.086Z,22.84
2017-08-26T08:04:36.683Z,22.82
2017-08-26T08:04:37.283Z,22.83
2017-08-26T08:04:37.882Z,22.82
2017-08-26T08:04:38.482Z,22.84
2017-08-26T08:04:39.082Z,22.90
2017-08-26T08:05:33.138Z,22.87
2017-08-26T08:05:33.731Z,22.94
2017-08-26T08:05:34.337Z,22.86
2017-08-26T08:05:34.932Z,22.93
2017-08-26T08:05:35.529Z,22.97
2017-08-26T08:05:36.131Z,22.94
2017-08-26T08:05:36.738Z,22.94
2017-08-26T08:06:30.795Z,22.90
2017-08-26T08:06:31.387Z,22.92
2017-08-26T08:06:31.985Z,22.92
2017-08-26T08:06:32.582Z,23.02
2017-08-26T08:06:33.183Z,22.94
2017-08-26T08:06:33.786Z,22.87
2017-08-26T08:06:34.386Z,23.01
2017-08-26T08:07:28.446Z,23.04
2017-08-26T08:07:29.042Z,23.07
2017-08-26T08:07:29.638Z,23.05
2017-08-26T08:07:30.239Z,22.96
2017-08-26T08:07:30.841Z,22.96
2017-08-26T08:07:31.438Z,23.04
2017-08-26T08:07:32.038Z,23.04
2017-08-26T08:08:26.094Z,23.12
2017-08-26T08:08:26.695Z,23.04
2017-08-26T08:08:27.290Z,23.07
2017-08-26T08:08:27.890Z,23.09
2017-08-26T08:08:28.488Z,23.04
2017-08-26T08:08:29.088Z,23.07
2017-08-26T08:08:29.690Z,23.12
2017-08-26T08:09:23.748Z,23.04
2017-08-26T08:09:24.343Z,23.19
2017-08-26T08:09:24.941Z,23.14
2017-08-26T08:09:25.542Z,23.12
2017-08-26T08:09:26.142Z,23.12
2017-08-26T08:09:26.737Z,23.12
2017-08-26T08:09:27.337Z,23.11
2017-08-26T08:10:22.344Z,23.02
2017-08-26T08:10:22.918Z,23.12
2017-08-26T08:10:23.521Z,23.05
2017-08-26T08:10:24.119Z,23.17
2017-08-26T08:10:24.715Z,23.19
2017-08-26T08:10:25.321Z,23.19
2017-08-26T08:11:19.872Z,22.96
2017-08-26T08:11:20.466Z,23.08
2017-08-26T08:11:21.062Z,22.97
2017-08-26T08:11:21.664Z,22.99
2017-08-26T08:11:22.266Z,22.96
2017-08-26T08:11:22.862Z,23.01
2017-08-26T08:11:23.463Z,22.94
2017-08-26T08:12:18.014Z,23.07
2017-08-26T08:12:18.522Z,23.07
2017-08-26T08:12:19.121Z,23.07
2017-08-26T08:12:19.722Z,23.07
2017-08-26T08:12:20.320Z,23.02
2017-08-26T08:12:20.921Z,23.05
2017-08-26T08:12:21.517Z,23.04
2017-08-26T08:13:16.095Z,23.02
2017-08-26T08:13:16.688Z,23.05
2017-08-26T08:13:17.288Z,23.01
2017-08-26T08:13:17.898Z,23.04
2017-08-26T08:13:18.492Z,23.05
2017-08-26T08:13:19.091Z,22.97
2017-08-26T08:13:19.692Z,23.08
2017-08-26T08:14:14.158Z,23.07
2017-08-26T08:14:14.750Z,23.05
2017-08-26T08:14:15.358Z,22.99
2017-08-26T08:14:15.958Z,23.14
2017-08-26T08:14:16.550Z,23.05
2017-08-26T08:14:17.154Z,23.07
2017-08-26T08:14:17.753Z,23.05
2017-08-26T08:14:18.354Z,23.07
2017-08-26T08:15:11.834Z,23.15
2017-08-26T08:15:12.406Z,23.14
2017-08-26T08:15:13.002Z,23.14
2017-08-26T08:15:13.609Z,23.12
2017-08-26T08:15:14.209Z,23.14
2017-08-26T08:15:14.811Z,23.14
2017-08-26T08:15:15.409Z,23.11
2017-08-26T08:15:16.011Z,23.19
2017-08-26T08:16:09.468Z,23.15
2017-08-26T08:16:10.058Z,23.20
2017-08-26T08:16:10.659Z,23.08
2017-08-26T08:16:11.255Z,23.15
2017-08-26T08:16:11.860Z,23.20
2017-08-26T08:16:12.460Z,23.27
2017-08-26T08:16:13.060Z,23.08
2017-08-26T08:16:13.661Z,23.19
2017-08-26T08:17:08.165Z,23.29
2017-08-26T08:17:08.734Z,23.24
2017-08-26T08:17:09.333Z,23.20
2017-08-26T08:17:09.937Z,23.24
2017-08-26T08:17:10.536Z,23.24
2017-08-26T08:17:11.136Z,23.23
2017-08-26T08:17:11.732Z,23.24
2017-08-26T08:17:12.328Z,23.24
2017-08-26T08:18:05.791Z,23.17
2017-08-26T08:18:06.385Z,23.26
2017-08-26T08:18:06.986Z,23.22
2017-08-26T08:18:07.588Z,23.22
2017-08-26T08:18:08.186Z,23.14
2017-08-26T08:18:08.787Z,23.23
2017-08-26T08:18:09.389Z,23.23
2017-08-26T08:18:09.985Z,23.23
2017-08-26T08:19:04.466Z,23.07
2017-08-26T08:19:05.062Z,23.15
2017-08-26T08:19:05.662Z,23.14
2017-08-26T08:19:06.273Z,23.19
2017-08-26T08:19:06.865Z,23.14
2017-08-26T08:19:07.460Z,23.12
2017-08-26T08:19:08.061Z,23.07
2017-08-26T08:19:08.663Z,23.11
2017-08-26T08:20:02.143Z,23.38
2017-08-26T08:20:02.712Z,23.26
2017-08-26T08:20:03.311Z,23.29
2017-08-26T08:20:03.915Z,23.24
2017-08-26T08:20:04.517Z,23.31
2017-08-26T08:20:05.114Z,23.31
2017-08-26T08:20:05.713Z,23.34
2017-08-26T08:20:06.310Z,23.27
2017-08-26T08:20:59.773Z,23.27
2017-08-26T08:21:00.369Z,23.23
2017-08-26T08:21:00.969Z,23.35
2017-08-26T08:21:01.563Z,23.23
2017-08-26T08:21:02.163Z,23.26
2017-08-26T08:21:02.764Z,23.29
2017-08-26T08:21:03.364Z,23.22
2017-08-26T08:21:03.966Z,23.34
2017-08-26T08:21:57.420Z,23.14
2017-08-26T08:21:58.018Z,23.12
2017-08-26T08:21:58.613Z,23.09
2017-08-26T08:21:59.216Z,23.14
2017-08-26T08:21:59.813Z,23.24
2017-08-26T08:22:00.419Z,23.12
2017-08-26T08:22:01.013Z,23.19
2017-08-26T08:22:01.615Z,23.12
2017-08-26T08:22:55.069Z,23.22
2017-08-26T08:22:55.668Z,23.27
2017-08-26T08:22:56.269Z,23.23
2017-08-26T08:22:56.864Z,23.35
2017-08-26T08:22:57.467Z,23.34
2017-08-26T08:22:58.064Z,23.27
2017-08-26T08:22:58.664Z,23.27
2017-08-26T08:22:59.268Z,23.31
2017-08-26T08:23:53.746Z,23.47
2017-08-26T08:23:54.341Z,23.42
2017-08-26T08:23:54.943Z,23.47
2017-08-26T08:23:55.547Z,23.46
2017-08-26T08:23:56.143Z,23.46
2017-08-26T08:23:56.741Z,23.49
2017-08-26T08:23:57.337Z,23.46
2017-08-26T08:23:57.937Z,23.52
2017-08-26T08:24:51.400Z,23.68
2017-08-26T08:24:51.992Z,23.71
2017-08-26T08:24:52.600Z,23.68
2017-08-26T08:24:53.200Z,23.70
2017-08-26T08:24:53.799Z,23.68
2017-08-26T08:24:54.396Z,23.65
2017-08-26T08:24:54.996Z,23.76
2017-08-26T08:24:55.597Z,23.68
2017-08-26T08:25:50.103Z,23.61
2017-08-26T08:25:50.669Z,23.70
2017-08-26T08:25:51.271Z,23.70
2017-08-26T08:25:51.870Z,23.72
2017-08-26T08:25:52.467Z,23.72
2017-08-26T08:25:53.071Z,23.64
2017-08-26T08:25:53.666Z,23.65
2017-08-26T08:25:54.274Z,23.64
2017-08-26T08:26:47.732Z,23.75
2017-08-26T08:26:48.326Z,23.82
2017-08-26T08:26:48.925Z,23.80
2017-08-26T08:26:49.523Z,23.79
2017-08-26T08:26:50.126Z,23.77
2017-08-26T08:26:50.725Z,23.72
2017-08-26T08:26:51.325Z,23.85
2017-08-26T08:26:51.923Z,23.72
2017-08-26T08:27:46.403Z,23.94
2017-08-26T08:27:46.997Z,23.95
2017-08-26T08:27:47.604Z,23.83
2017-08-26T08:27:48.196Z,23.87
2017-08-26T08:27:48.799Z,23.89
2017-08-26T08:27:49.392Z,23.89
2017-08-26T08:27:49.994Z,23.90
2017-08-26T08:27:50.592Z,23.89
2017-08-26T08:28:44.053Z,23.83
2017-08-26T08:28:44.652Z,23.86
2017-08-26T08:28:45.250Z,23.87
2017-08-26T08:28:45.855Z,23.92
2017-08-26T08:28:46.449Z,23.94
2017-08-26T08:28:47.051Z,23.85
2017-08-26T08:28:47.655Z,23.89
2017-08-26T08:28:48.254Z,23.90
2017-08-26T08:29:41.705Z,24.04
2017-08-26T08:29:42.304Z,23.92
2017-08-26T08:29:42.900Z,23.94
2017-08-26T08:29:43.501Z,24.02
2017-08-26T08:29:44.098Z,24.04
2017-08-26T08:29:44.698Z,24.05
2017-08-26T08:29:45.298Z,24.02
2017-08-26T08:29:45.900Z,24.01
2017-08-26T08:30:40.377Z,24.19
2017-08-26T08:30:40.980Z,24.19
2017-08-26T08:30:41.578Z,24.08
2017-08-26T08:30:42.180Z,24.14
2017-08-26T08:30:42.776Z,24.05
2017-08-26T08:30:43.376Z,24.17
2017-08-26T08:30:43.974Z,24.16
2017-08-26T08:30:44.574Z,24.13
2017-08-26T08:31:39.081Z,24.14
2017-08-26T08:31:39.655Z,24.07
2017-08-26T08:31:40.253Z,24.13
2017-08-26T08:31:40.854Z,24.10
2017-08-26T08:31:41.450Z,24.12
2017-08-26T08:31:42.051Z,24.07
2017-08-26T08:31:42.655Z,24.12
2017-08-26T08:31:43.253Z,24.16
2017-08-26T08:32:36.705Z,24.24
2017-08-26T08:32:37.303Z,24.16
2017-08-26T08:32:37.908Z,24.16
2017-08-26T08:32:38.511Z,24.23
2017-08-26T08:32:39.105Z,24.24
2017-08-26T08:32:39.705Z,24.26
2017-08-26T08:32:40.308Z,24.27
2017-08-26T08:32:40.906Z,24.31
2017-08-26T08:33:34.359Z,24.31
2017-08-26T08:33:34.954Z,24.31
2017-08-26T08:33:35.561Z,24.27
2017-08-26T08:33:36.158Z,24.34
2017-08-26T08:33:36.761Z,24.24
2017-08-26T08:33:37.358Z,24.34
2017-08-26T08:33:37.958Z,24.29
2017-08-26T08:33:38.554Z,24.26
2017-08-26T08:34:32.011Z,24.35
2017-08-26T08:34:32.612Z,24.37
2017-08-26T08:34:33.213Z,24.41
2017-08-26T08:34:33.812Z,24.38
2017-08-26T08:34:34.412Z,24.38
2017-08-26T08:34:35.012Z,24.35
2017-08-26T08:34:35.614Z,24.35
2017-08-26T08:34:36.208Z,24.38
2017-08-26T08:35:29.670Z,24.35
2017-08-26T08:35:30.262Z,24.37
2017-08-26T08:35:30.861Z,24.38
2017-08-26T08:35:31.462Z,24.38
2017-08-26T08:35:32.057Z,24.42
2017-08-26T08:35:32.657Z,24.38
2017-08-26T08:35:33.259Z,24.39
2017-08-26T08:35:33.859Z,24.38
2017-08-26T08:36:28.339Z,24.42
2017-08-26T08:36:28.931Z,24.45
2017-08-26T08:36:29.532Z,24.52
2017-08-26T08:36:30.132Z,24.45
2017-08-26T08:36:30.732Z,24.47
2017-08-26T08:36:31.332Z,24.41
2017-08-26T08:36:31.933Z,24.45
2017-08-26T08:36:32.539Z,24.49
2017-08-26T08:37:27.037Z,24.49
2017-08-26T08:37:27.609Z,24.41
2017-08-26T08:37:28.210Z,24.47
2017-08-26T08:37:28.808Z,24.45
2017-08-26T08:37:29.412Z,24.42
2017-08-26T08:37:30.008Z,24.47
2017-08-26T08:37:30.611Z,24.50
2017-08-26T08:37:31.207Z,24.45
2017-08-26T08:38:25.696Z,24.45
2017-08-26T08:38:26.288Z,24.49
2017-08-26T08:38:26.888Z,24.47
2017-08-26T08:38:27.487Z,24.45
2017-08-26T08:38:28.092Z,24.44
2017-08-26T08:38:28.692Z,24.42
2017-08-26T08:38:29.290Z,24.47
2017-08-26T08:38:29.886Z,24.52
2017-08-26T08:39:23.342Z,24.54
2017-08-26T08:39:23.940Z,24.61
2017-08-26T08:39:24.539Z,24.56
2017-08-26T08:39:25.138Z,24.60
2017-08-26T08:39:25.735Z,24.61
2017-08-26T08:39:26.340Z,24.59
2017-08-26T08:39:26.942Z,24.60
2017-08-26T08:39:27.540Z,24.63
2017-08-26T08:40:20.995Z,24.59
2017-08-26T08:40:21.592Z,24.64
2017-08-26T08:40:22.196Z,24.67
2017-08-26T08:40:22.792Z,24.69
2017-08-26T08:40:23.391Z,24.63
2017-08-26T08:40:23.990Z,24.69
2017-08-26T08:40:24.589Z,24.71
2017-08-26T08:40:25.191Z,24.71
2017-08-26T08:41:19.671Z,24.73
2017-08-26T08:41:20.262Z,24.80
2017-08-26T08:41:20.867Z,24.75
2017-08-26T08:41:21.465Z,24.87
2017-08-26T08:41:22.068Z,24.77
2017-08-26T08:41:22.662Z,24.79
2017-08-26T08:41:23.262Z,24.80
2017-08-26T08:41:23.868Z,24.82
2017-08-26T08:42:17.322Z,24.92
2017-08-26T08:42:17.922Z,24.90
2017-08-26T08:42:18.514Z,24.92
2017-08-26T08:42:19.114Z,24.90
2017-08-26T08:42:19.719Z,24.90
2017-08-26T08:42:20.318Z,24.90
2017-08-26T08:42:20.923Z,24.98
2017-08-26T08:42:21.514Z,24.94
2017-08-26T08:43:16.026Z,24.97
2017-08-26T08:43:16.593Z,25.00
2017-08-26T08:43:17.190Z,25.02
2017-08-26T08:43:17.793Z,25.01
2017-08-26T08:43:18.390Z,24.97
2017-08-26T08:43:18.991Z,25.05
2017-08-26T08:43:19.592Z,24.98
2017-08-26T08:43:20.190Z,24.97
2017-08-26T08:44:13.645Z,24.92
2017-08-26T08:44:14.246Z,24.94
2017-08-26T08:44:14.857Z,24.98
2017-08-26T08:44:15.445Z,24.94
2017-08-26T08:44:16.045Z,25.00
2017-08-26T08:44:16.649Z,24.95
2017-08-26T08:44:17.246Z,25.01
2017-08-26T08:44:17.848Z,25.00
2017-08-26T08:45:12.328Z,25.10
2017-08-26T08:45:12.921Z,25.12
2017-08-26T08:45:13.521Z,25.17
2017-08-26T08:45:14.118Z,25.15
2017-08-26T08:45:14.721Z,25.20
2017-08-26T08:45:15.319Z,25.15
2017-08-26T08:45:15.920Z,25.17
2017-08-26T08:45:16.517Z,25.16
2017-08-26T08:46:10.996Z,25.34
2017-08-26T08:46:11.595Z,25.38
2017-08-26T08:46:12.194Z,25.39
2017-08-26T08:46:12.793Z,25.34
2017-08-26T08:46:13.396Z,25.42
2017-08-26T08:46:13.996Z,25.35
2017-08-26T08:46:14.597Z,25.37
2017-08-26T08:46:15.200Z,25.44
2017-08-26T08:47:08.652Z,25.46
2017-08-26T08:47:09.249Z,25.34
2017-08-26T08:47:09.845Z,25.46
2017-08-26T08:47:10.447Z,25.37
2017-08-26T08:47:11.048Z,25.32
2017-08-26T08:47:11.646Z,25.37
2017-08-26T08:47:12.245Z,25.37
2017-08-26T08:47:12.845Z,25.30
2017-08-26T08:48:07.330Z,25.13
2017-08-26T08:48:07.919Z,25.16
2017-08-26T08:48:08.523Z,25.13
2017-08-26T08:48:09.119Z,25.06
2017-08-26T08:48:09.720Z,25.16
2017-08-26T08:48:10.323Z,25.10
2017-08-26T08:48:10.923Z,25.13
2017-08-26T08:48:11.522Z,25.10
2017-08-26T09:07:10.751Z,24.98
2017-08-26T09:07:11.324Z,25.01
2017-08-26T09:07:11.925Z,24.98
2017-08-26T09:07:12.521Z,24.95
2017-08-26T09:07:13.123Z,24.97
2017-08-26T09:07:13.724Z,24.97
2017-08-26T09:07:14.324Z,25.00
2017-08-26T09:07:14.924Z,25.00
2017-08-26T09:08:08.377Z,25.12
2017-08-26T09:08:08.975Z,25.07
2017-08-26T09:08:09.577Z,25.10
2017-08-26T09:08:10.174Z,25.12
2017-08-26T09:08:10.778Z,25.09
2017-08-26T09:08:11.377Z,25.02
2017-08-26T09:08:11.976Z,25.01
2017-08-26T09:08:12.581Z,25.09
2017-08-26T09:09:07.060Z,25.07
2017-08-26T09:09:07.649Z,25.09
2017-08-26T09:09:08.252Z,25.09
2017-08-26T09:09:08.852Z,25.07
2017-08-26T09:09:09.453Z,25.09
2017-08-26T09:09:10.056Z,25.07
2017-08-26T09:09:10.657Z,25.07
2017-08-26T09:09:11.255Z,25.12
2017-08-26T09:10:04.714Z,25.17
2017-08-26T09:10:05.303Z,25.22
2017-08-26T09:10:05.911Z,25.15
2017-08-26T09:10:06.505Z,25.25
2017-08-26T09:10:07.105Z,25.17
2017-08-26T09:10:07.703Z,25.24
2017-08-26T09:10:08.305Z,25.17
2017-08-26T09:10:08.900Z,25.12
2017-08-26T09:11:03.385Z,25.30
2017-08-26T09:11:03.979Z,25.35
2017-08-26T09:11:04.582Z,25.32
2017-08-26T09:11:05.185Z,25.34
2017-08-26T09:11:05.782Z,25.37
2017-08-26T09:11:06.383Z,25.32
2017-08-26T09:11:06.986Z,25.37
2017-08-26T09:11:07.587Z,25.37
2017-08-26T09:12:01.060Z,25.19
2017-08-26T09:12:01.640Z,25.22
2017-08-26T09:12:02.238Z,25.19
2017-08-26T09:12:02.835Z,25.24
2017-08-26T09:12:03.436Z,25.10
2017-08-26T09:12:04.035Z,25.12
2017-08-26T09:12:04.632Z,25.09
2017-08-26T09:12:05.234Z,25.09
2017-08-26T09:12:58.693Z,25.17
2017-08-26T09:12:59.287Z,25.20
2017-08-26T09:12:59.887Z,25.07
2017-08-26T09:13:00.486Z,25.10
2017-08-26T09:13:01.090Z,25.12
2017-08-26T09:13:01.686Z,25.17
2017-08-26T09:13:02.283Z,25.17
2017-08-26T09:13:02.882Z,25.07
2017-08-26T09:13:57.369Z,25.13
2017-08-26T09:13:57.962Z,25.05
2017-08-26T09:13:58.559Z,25.13
2017-08-26T09:13:59.166Z,25.15
2017-08-26T09:13:59.762Z,25.15
2017-08-26T09:14:00.362Z,25.13
2017-08-26T09:14:00.962Z,25.13
2017-08-26T09:14:01.579Z,25.17
2017-08-26T09:14:56.037Z,25.31
2017-08-26T09:14:56.635Z,25.30
2017-08-26T09:14:57.238Z,25.27
2017-08-26T09:14:57.838Z,25.27
2017-08-26T09:14:58.434Z,25.31
2017-08-26T09:14:59.037Z,25.30
2017-08-26T09:14:59.637Z,25.30
2017-08-26T09:15:00.238Z,25.34
2017-08-26T09:15:53.692Z,25.32
2017-08-26T09:15:54.287Z,25.34
2017-08-26T09:15:54.890Z,25.31
2017-08-26T09:15:55.494Z,25.37
2017-08-26T09:15:56.093Z,25.27
2017-08-26T09:15:56.695Z,25.35
2017-08-26T09:15:57.294Z,25.27
2017-08-26T09:15:57.890Z,25.34
2017-08-26T09:16:51.376Z,25.39
2017-08-26T09:16:51.946Z,25.47
2017-08-26T09:16:52.542Z,25.49
2017-08-26T09:16:53.146Z,25.49
2017-08-26T09:16:53.738Z,25.52
2017-08-26T09:16:54.341Z,25.52
2017-08-26T09:16:54.939Z,25.47
2017-08-26T09:16:55.540Z,25.46
2017-08-26T09:17:50.021Z,25.75
2017-08-26T09:17:50.616Z,25.79
2017-08-26T09:17:51.217Z,25.77
2017-08-26T09:17:51.817Z,25.71
2017-08-26T09:17:52.412Z,25.77
2017-08-26T09:17:53.018Z,25.77
2017-08-26T09:17:53.613Z,25.75
2017-08-26T09:17:54.219Z,25.67
2017-08-26T09:18:48.698Z,26.04
2017-08-26T09:18:49.293Z,26.05
2017-08-26T09:18:49.898Z,26.04
2017-08-26T09:18:50.496Z,26.02
2017-08-26T09:18:51.114Z,25.98
2017-08-26T09:18:51.696Z,26.04
2017-08-26T09:18:52.297Z,26.11
2017-08-26T09:18:52.896Z,26.04
2017-08-26T09:19:48.831Z,26.43
2017-08-26T09:19:49.432Z,26.54
2017-08-26T09:19:50.031Z,26.40
2017-08-26T09:19:50.625Z,26.57
2017-08-26T09:19:51.225Z,26.44
2017-08-26T09:19:51.820Z,26.50
2017-08-26T09:20:57.011Z,26.89
2017-08-26T09:20:57.603Z,26.91
2017-08-26T09:20:58.202Z,26.81
2017-08-26T09:20:58.811Z,26.89
2017-08-26T09:20:59.399Z,26.86
2017-08-26T09:20:59.999Z,26.92
2017-08-26T09:21:00.603Z,26.86
2017-08-26T09:21:01.202Z,26.92
2017-08-26T09:21:57.247Z,27.11
2017-08-26T09:21:57.818Z,27.06
2017-08-26T09:21:58.418Z,27.24
2017-08-26T09:21:59.014Z,27.16
2017-08-26T09:21:59.617Z,27.14
2017-08-26T09:22:00.217Z,27.17
2017-08-26T09:22:55.173Z,27.23
2017-08-26T09:22:55.769Z,27.33
2017-08-26T09:22:56.368Z,27.24
2017-08-26T09:22:56.968Z,27.35
2017-08-26T09:22:57.572Z,27.35
2017-08-26T09:22:58.172Z,27.32
2017-08-26T09:22:58.774Z,27.28
2017-08-26T09:22:59.377Z,27.33
2017-08-26T09:23:52.833Z,27.32
2017-08-26T09:23:53.429Z,27.41
2017-08-26T09:23:54.025Z,27.41
2017-08-26T09:23:54.630Z,27.41
2017-08-26T09:23:55.221Z,27.39
2017-08-26T09:23:55.829Z,27.29
2017-08-26T09:23:56.426Z,27.36
2017-08-26T09:23:57.022Z,27.41
2017-08-26T09:24:51.507Z,27.47
2017-08-26T09:24:52.103Z,27.53
2017-08-26T09:24:52.704Z,27.54
2017-08-26T09:24:53.301Z,27.57
2017-08-26T09:24:53.900Z,27.58
2017-08-26T09:24:54.500Z,27.61
2017-08-26T09:24:55.100Z,27.53
2017-08-26T09:24:55.699Z,27.62
2017-08-26T09:25:49.157Z,27.61
2017-08-26T09:25:49.758Z,27.64
2017-08-26T09:25:50.357Z,27.62
2017-08-26T09:25:50.956Z,27.66
2017-08-26T09:25:51.551Z,27.66
2017-08-26T09:25:52.149Z,27.61
2017-08-26T09:25:52.756Z,27.66
2017-08-26T09:25:53.351Z,27.67
2017-08-26T09:26:47.833Z,27.57
2017-08-26T09:26:48.423Z,27.64
2017-08-26T09:26:49.026Z,27.57
2017-08-26T09:26:49.627Z,27.59
2017-08-26T09:26:50.222Z,27.61
2017-08-26T09:26:50.830Z,27.57
2017-08-26T09:26:51.439Z,27.64
2017-08-26T09:26:52.027Z,27.57
2017-08-26T09:27:45.517Z,27.61
2017-08-26T09:27:46.082Z,27.64
2017-08-26T09:27:46.685Z,27.59
2017-08-26T09:27:47.281Z,27.57
2017-08-26T09:27:47.878Z,27.61
2017-08-26T09:27:48.478Z,27.58
2017-08-26T09:27:49.085Z,27.57
2017-08-26T09:27:49.685Z,27.66
2017-08-26T09:28:44.159Z,27.61
2017-08-26T09:28:44.757Z,27.70
2017-08-26T09:28:45.350Z,27.64
2017-08-26T09:28:45.955Z,27.58
2017-08-26T09:28:46.554Z,27.67
2017-08-26T09:28:47.154Z,27.57
2017-08-26T09:28:47.758Z,27.66
2017-08-26T09:28:48.352Z,27.69
2017-08-26T09:29:41.807Z,27.79
2017-08-26T09:29:42.411Z,27.79
2017-08-26T09:29:43.009Z,27.71
2017-08-26T09:29:43.610Z,27.76
2017-08-26T09:29:44.208Z,27.76
2017-08-26T09:29:44.811Z,27.70
2017-08-26T09:29:45.414Z,27.80
2017-08-26T09:29:46.008Z,27.71
2017-08-26T09:30:39.570Z,27.70
2017-08-26T09:30:40.167Z,27.76
2017-08-26T09:30:40.763Z,27.69
2017-08-26T09:30:41.368Z,27.69
2017-08-26T09:30:41.967Z,27.71
2017-08-26T09:30:42.560Z,27.74
2017-08-26T09:30:43.159Z,27.74
2017-08-26T09:30:43.763Z,27.76
2017-08-26T09:31:37.320Z,27.74
2017-08-26T09:31:37.922Z,27.76
2017-08-26T09:31:38.515Z,27.73
2017-08-26T09:31:39.112Z,27.76
2017-08-26T09:31:39.713Z,27.82
2017-08-26T09:31:40.319Z,27.82
2017-08-26T09:31:40.927Z,27.77
2017-08-26T09:31:41.527Z,27.85
2017-08-26T09:33:43.861Z,27.92
2017-08-26T09:33:44.428Z,27.89
2017-08-26T09:33:45.034Z,27.89
2017-08-26T09:33:45.634Z,27.92
2017-08-26T09:33:46.232Z,27.89
2017-08-26T09:33:46.835Z,27.88
2017-08-26T09:33:47.428Z,27.94
2017-08-26T09:33:48.029Z,27.94
2017-08-26T09:33:48.631Z,27.89
2017-08-26T09:33:49.235Z,27.91
2017-08-26T09:33:49.832Z,27.98
2017-08-26T09:33:50.429Z,27.89
2017-08-26T09:36:14.086Z,27.70
2017-08-26T09:36:14.595Z,27.73
2017-08-26T09:36:15.191Z,27.69
2017-08-26T09:36:15.789Z,27.69
2017-08-26T09:36:16.395Z,27.70
2017-08-26T09:36:16.998Z,27.74
2017-08-26T09:36:17.592Z,27.76
2017-08-26T09:36:18.192Z,27.66
2017-08-26T09:36:18.788Z,27.74
2017-08-26T09:36:19.391Z,27.67
2017-08-26T09:36:19.991Z,27.73
2017-08-26T09:37:14.524Z,27.54
2017-08-26T09:37:15.122Z,27.59
2017-08-26T09:37:15.726Z,27.54
2017-08-26T09:37:16.322Z,27.59
2017-08-26T09:37:16.922Z,27.53
2017-08-26T09:37:17.518Z,27.54
2017-08-26T09:37:18.122Z,27.53
2017-08-26T09:38:12.600Z,27.84
2017-08-26T09:38:13.168Z,27.89
2017-08-26T09:38:13.764Z,27.94